Time;durP1;ratioP1;P1;durP2;ratioP2;P2;SDS_P1;SDS_P2;PMS_P1;PMS_P2;Temp;Humidity;BMP_temperature;BMP_pressure;BME280_temperature;BME280_humidity;BME280_pressure;Samples;Min_cycle;Max_cycle;Signal;HPM_P1;HPM_P2
2022/12/08 00:00:26;;;;;;;;;;;;;;;7.40;81.06;99760.28;5045776;28;19916;-80
2022/12/08 00:02:51;;;;;;;;;;;;;;;7.43;81.69;99768.16;5046140;28;19920;-81
2022/12/08 00:10:44;;;;;;;;;;;;;;;7.62;81.36;99765.50;5044056;28;19935;-82
2022/12/08 00:13:10;;;;;;;;;;;;;;;7.68;81.04;99770.75;5045351;28;19917;-83
2022/12/08 00:15:35;;;;;;;;;;;;;;;7.63;80.96;99776.00;5045224;28;19916;-82
2022/12/08 00:18:08;;;;;;;;;;;;;;;7.61;81.58;99787.38;5045159;28;19917;-84
2022/12/08 00:20:34;;;;;;;;;;;;;;;7.61;80.96;99784.75;5044128;28;19926;-81
2022/12/08 00:22:59;;;;;;;;;;;;;;;7.60;81.02;99777.72;5027528;28;19916;-82
2022/12/08 00:25:24;;;;;;;;;;;;;;;7.67;81.93;99779.47;5043724;28;19978;-82
2022/12/08 00:27:50;;;;;;;;;;;;;;;7.70;81.48;99788.22;5024223;28;19925;-81
2022/12/08 00:30:15;;;;;;;;;;;;;;;7.69;81.96;99785.59;5043106;28;19917;-82
2022/12/08 00:32:40;;;;;;;;;;;;;;;7.67;81.35;99782.97;5045624;28;19920;-82
2022/12/08 00:35:06;;;;;;;;;;;;;;;7.79;81.10;99789.97;5048999;28;19981;-82
2022/12/08 00:37:31;;;;;;;;;;;;;;;7.75;81.39;99787.34;5024684;28;19928;-84
2022/12/08 00:39:57;;;;;;;;;;;;;;;7.83;80.79;99780.31;5048930;28;19924;-82
2022/12/08 00:42:22;;;;;;;;;;;;;;;7.84;81.69;99784.69;5034067;28;19927;-81
2022/12/08 00:44:47;;;;;;;;;;;;;;;7.93;80.87;99782.03;5046092;28;19943;-81
2022/12/08 00:47:13;;;;;;;;;;;;;;;7.80;81.45;99767.19;5050056;28;19939;-81
2022/12/08 00:49:38;;;;;;;;;;;;;;;7.91;81.37;99781.19;5049757;28;19960;-81
2022/12/08 00:52:04;;;;;;;;;;;;;;;7.83;81.90;99781.22;5050059;28;19913;-81
2022/12/08 00:54:29;;;;;;;;;;;;;;;7.93;81.16;99770.69;5050032;28;19978;-82
2022/12/08 00:56:55;;;;;;;;;;;;;;;7.97;81.20;99775.03;5049994;28;20474;-82
2022/12/08 00:59:20;;;;;;;;;;;;;;;7.82;81.79;99747.94;5050651;28;20011;-81
2022/12/08 01:01:46;;;;;;;;;;;;;;;8.00;81.52;99773.28;5050196;28;19923;-82
2022/12/08 01:04:14;;;;;;;;;;;;;;;8.08;81.53;99770.63;5048561;28;20015;-82
2022/12/08 01:06:40;;;;;;;;;;;;;;;8.00;81.64;99770.66;5049999;28;19975;-82
2022/12/08 01:09:05;;;;;;;;;;;;;;;8.12;81.05;99771.47;5049187;28;19920;-82
2022/12/08 01:11:31;;;;;;;;;;;;;;;8.16;81.24;99767.97;5050154;28;19912;-82
2022/12/08 01:13:57;;;;;;;;;;;;;;;8.11;80.59;99761.84;5049623;28;20313;-82
2022/12/08 01:16:23;;;;;;;;;;;;;;;8.05;81.54;99766.25;5049611;28;20709;-82
2022/12/08 01:18:49;;;;;;;;;;;;;;;8.05;80.92;99766.25;5049776;28;19923;-82
2022/12/08 01:21:14;;;;;;;;;;;;;;;8.03;81.64;99767.13;5049537;28;19912;-82
2022/12/08 01:23:40;;;;;;;;;;;;;;;8.13;80.95;99778.50;5049335;28;19925;-82
2022/12/08 01:26:07;;;;;;;;;;;;;;;8.07;81.53;99782.00;5049202;28;19966;-82
2022/12/08 01:28:32;;;;;;;;;;;;;;;8.05;81.51;99782.00;5049445;28;20322;-82
2022/12/08 01:30:58;;;;;;;;;;;;;;;8.06;81.99;99773.25;5049010;28;19917;-81
2022/12/08 01:33:23;;;;;;;;;;;;;;;8.14;81.98;99770.59;5049388;28;20442;-81
2022/12/08 01:35:49;;;;;;;;;;;;;;;8.20;81.44;99767.94;5049258;28;19913;-82
2022/12/08 01:38:14;;;;;;;;;;;;;;;7.94;81.56;99773.28;5048790;28;19960;-82
2022/12/08 01:40:39;;;;;;;;;;;;;;;7.68;83.11;99774.22;5049023;28;19920;-82
2022/12/08 01:43:05;;;;;;;;;;;;;;;7.96;82.24;99776.78;5049035;28;20009;-81
2022/12/08 01:45:31;;;;;;;;;;;;;;;8.01;81.77;99777.63;5048367;28;20015;-81
2022/12/08 01:48:03;;;;;;;;;;;;;;;8.03;82.25;99775.91;5039722;28;20418;-81
2022/12/08 01:50:29;;;;;;;;;;;;;;;8.07;82.12;99782.88;5027074;28;20004;-85
2022/12/08 01:53:04;;;;;;;;;;;;;;;8.10;81.68;99782.00;5029294;28;19975;-85
2022/12/08 01:55:35;;;;;;;;;;;;;;;8.12;81.85;99779.34;5027350;28;20465;-82
2022/12/08 01:58:26;;;;;;;;;;;;;;;8.24;81.40;99787.19;5038225;28;19921;-81
2022/12/08 02:00:51;;;;;;;;;;;;;;;8.23;81.30;99774.94;5048606;28;19928;-82
2022/12/08 02:03:27;;;;;;;;;;;;;;;8.14;81.61;99775.84;5048606;28;19917;-82
2022/12/08 02:05:52;;;;;;;;;;;;;;;8.23;81.09;99764.41;5030516;28;19920;-82
2022/12/08 02:08:18;;;;;;;;;;;;;;;8.20;81.45;99775.84;5049013;28;19962;-82
2022/12/08 02:10:50;;;;;;;;;;;;;;;8.20;81.33;99767.06;5046362;28;20313;-82
2022/12/08 02:13:16;;;;;;;;;;;;;;;8.29;81.74;99772.28;5029768;28;19921;-82
2022/12/08 02:15:52;;;;;;;;;;;;;;;8.29;81.46;99777.53;5026083;28;20303;-82
2022/12/08 02:18:23;;;;;;;;;;;;;;;8.30;80.96;99768.78;5027246;28;20390;-82
2022/12/08 02:20:51;;;;;;;;;;;;;;;8.19;80.95;99766.19;5028352;28;19913;-82
2022/12/08 02:23:22;;;;;;;;;;;;;;;8.24;80.94;99767.03;5029625;28;19974;-82
2022/12/08 02:25:54;;;;;;;;;;;;;;;8.28;80.61;99765.28;5048385;28;19927;-82
2022/12/08 02:28:35;;;;;;;;;;;;;;;8.26;80.80;99769.66;5048633;28;19917;-82
2022/12/08 02:31:18;;;;;;;;;;;;;;;8.30;80.51;99770.53;5048015;28;20452;-82
2022/12/08 02:33:54;;;;;;;;;;;;;;;8.02;80.84;99766.25;5048088;28;19920;-82
2022/12/08 02:36:23;;;;;;;;;;;;;;;8.16;80.74;99762.72;5047770;28;19956;-82
2022/12/08 02:39:04;;;;;;;;;;;;;;;8.25;80.52;99762.69;5028375;28;20015;-82
2022/12/08 02:41:38;;;;;;;;;;;;;;;8.21;80.26;99766.19;5027830;28;20379;-81
2022/12/08 02:44:22;;;;;;;;;;;;;;;8.16;81.22;99765.34;5027917;28;20443;-82
2022/12/08 02:46:52;;;;;;;;;;;;;;;8.21;80.32;99766.19;5027671;28;19995;-82
2022/12/08 02:49:18;;;;;;;;;;;;;;;8.09;80.96;99771.50;5028631;28;20488;-82
2022/12/08 02:51:43;;;;;;;;;;;;;;;8.16;81.26;99776.72;5027755;28;20391;-82
2022/12/08 02:54:09;;;;;;;;;;;;;;;7.84;82.15;99769.81;5031854;28;19917;-82
2022/12/08 02:56:57;;;;;;;;;;;;;;;8.11;81.41;99781.13;5046789;28;20829;-83
2022/12/08 02:59:57;;;;;;;;;;;;;;;8.04;81.61;99780.25;5045900;28;19920;-82
2022/12/08 03:02:28;;;;;;;;;;;;;;;8.01;81.90;99777.63;4961836;28;19922;-82
2022/12/08 03:04:53;;;;;;;;;;;;;;;7.76;83.05;99776.84;5029745;28;19928;-83
2022/12/08 03:07:39;;;;;;;;;;;;;;;7.83;83.08;99783.84;5047804;28;20433;-82
2022/12/08 03:10:22;;;;;;;;;;;;;;;7.79;83.12;99784.72;5047547;28;19923;-85
2022/12/08 03:12:50;;;;;;;;;;;;;;;7.88;83.11;99781.19;5047222;28;19916;-82
2022/12/08 03:15:17;;;;;;;;;;;;;;;7.81;83.47;99782.06;5047364;28;19913;-82
2022/12/08 03:17:44;;;;;;;;;;;;;;;7.87;83.13;99785.56;5047214;28;20424;-82
2022/12/08 03:20:11;;;;;;;;;;;;;;;7.88;82.40;99774.19;5047169;28;20448;-81
2022/12/08 03:22:39;;;;;;;;;;;;;;;7.53;84.36;99774.25;5047075;28;19920;-81
2022/12/08 03:25:06;;;;;;;;;;;;;;;7.77;84.18;99768.09;5047494;28;19974;-82
2022/12/08 03:27:32;;;;;;;;;;;;;;;7.87;83.79;99771.56;5046675;28;19931;-82
2022/12/08 03:29:58;;;;;;;;;;;;;;;8.03;82.96;99762.75;5047475;28;19917;-81
2022/12/08 03:32:38;;;;;;;;;;;;;;;8.15;81.51;99759.19;5046986;28;19926;-81
2022/12/08 03:35:06;;;;;;;;;;;;;;;8.25;81.48;99758.28;5047296;28;19923;-82
2022/12/08 03:37:34;;;;;;;;;;;;;;;8.27;81.10;99760.91;5047157;28;19920;-82
2022/12/08 03:39:59;;;;;;;;;;;;;;;8.36;80.96;99757.38;5046773;28;19975;-82
2022/12/08 03:42:25;;;;;;;;;;;;;;;8.31;80.61;99762.66;5047087;28;19920;-82
2022/12/08 03:44:50;;;;;;;;;;;;;;;8.39;81.00;99770.50;5046822;28;19920;-82
2022/12/08 03:47:15;;;;;;;;;;;;;;;8.38;80.77;99771.38;5046577;28;19913;-82
2022/12/08 03:49:40;;;;;;;;;;;;;;;8.14;81.17;99772.34;5047138;28;19913;-81
2022/12/08 03:52:06;;;;;;;;;;;;;;;8.10;80.87;99779.38;5047165;28;19939;-82
2022/12/08 03:54:31;;;;;;;;;;;;;;;7.93;82.02;99781.19;5046955;28;19916;-82
2022/12/08 03:56:56;;;;;;;;;;;;;;;8.09;81.72;99789.88;5047104;28;19920;-81
2022/12/08 03:59:22;;;;;;;;;;;;;;;8.19;80.99;99789.84;5047378;28;19923;-80
2022/12/08 04:01:47;;;;;;;;;;;;;;;8.39;80.89;99788.91;5046515;28;20386;-82
2022/12/08 04:04:12;;;;;;;;;;;;;;;8.33;79.91;99781.91;5046588;28;20368;-84
2022/12/08 04:06:38;;;;;;;;;;;;;;;8.27;80.53;99779.31;5029156;28;19917;-84
2022/12/08 04:09:03;;;;;;;;;;;;;;;8.14;80.78;99780.22;5050484;28;19919;-83
2022/12/08 04:11:28;;;;;;;;;;;;;;;8.05;81.73;99787.25;5050472;28;19939;-83
2022/12/08 04:13:54;;;;;;;;;;;;;;;8.11;82.25;99786.38;5050964;28;19917;-82
2022/12/08 04:16:20;;;;;;;;;;;;;;;7.94;82.03;99782.91;5050617;28;19921;-82
2022/12/08 04:18:46;;;;;;;;;;;;;;;8.00;81.19;99777.63;5031917;28;19916;-84
2022/12/08 04:21:11;;;;;;;;;;;;;;;7.96;81.05;99776.78;5048787;28;19921;-82
2022/12/08 04:23:36;;;;;;;;;;;;;;;8.06;81.50;99785.50;5049178;28;19928;-84
2022/12/08 04:26:02;;;;;;;;;;;;;;;8.18;80.85;99788.09;5048254;28;19916;-82
2022/12/08 04:28:28;;;;;;;;;;;;;;;8.32;80.13;99797.69;5034189;28;19920;-82
2022/12/08 04:30:53;;;;;;;;;;;;;;;8.30;79.65;99794.19;5048204;28;20326;-83
2022/12/08 04:33:18;;;;;;;;;;;;;;;7.99;79.69;99797.78;5050044;28;20002;-82
2022/12/08 04:35:44;;;;;;;;;;;;;;;8.09;80.09;99792.50;5050272;28;19916;-81
2022/12/08 04:38:10;;;;;;;;;;;;;;;8.21;79.51;99792.47;5050022;28;19935;-82
2022/12/08 04:40:35;;;;;;;;;;;;;;;7.95;79.84;99785.53;5050661;28;20747;-82
2022/12/08 04:43:00;;;;;;;;;;;;;;;8.14;79.51;99789.00;5049916;28;19912;-81
2022/12/08 04:45:26;;;;;;;;;;;;;;;7.73;81.25;99787.34;5049704;28;20031;-84
2022/12/08 04:47:51;;;;;;;;;;;;;;;7.95;80.89;99790.78;5049890;28;20496;-82
2022/12/08 04:50:16;;;;;;;;;;;;;;;8.01;80.53;99784.66;5049117;28;19917;-83
2022/12/08 04:52:42;;;;;;;;;;;;;;;8.06;80.32;99790.75;5048031;28;19916;-82
2022/12/08 04:55:07;;;;;;;;;;;;;;;7.88;80.26;99792.56;5050068;28;20009;-83
2022/12/08 04:57:33;;;;;;;;;;;;;;;8.01;80.28;99800.41;5049654;28;20390;-82
2022/12/08 04:59:58;;;;;;;;;;;;;;;8.10;79.93;99792.50;5049066;28;20448;-83
2022/12/08 05:02:23;;;;;;;;;;;;;;;8.19;80.09;99784.59;5049160;28;20019;-83
2022/12/08 05:04:48;;;;;;;;;;;;;;;8.24;79.26;99789.81;5049447;28;19920;-84
2022/12/08 05:07:15;;;;;;;;;;;;;;;8.21;79.07;99792.47;5049172;28;20016;-84
2022/12/08 05:09:40;;;;;;;;;;;;;;;8.22;79.50;99795.09;5049182;28;19999;-83
2022/12/08 05:12:06;;;;;;;;;;;;;;;8.25;79.16;99797.69;5048912;28;20003;-82
2022/12/08 05:14:31;;;;;;;;;;;;;;;8.39;79.23;99802.03;5049664;28;19917;-84
2022/12/08 05:16:56;;;;;;;;;;;;;;;8.40;78.67;99794.16;5030302;28;19920;-82
2022/12/08 05:19:22;;;;;;;;;;;;;;;8.42;78.82;99796.78;5047882;28;19913;-84
2022/12/08 05:21:47;;;;;;;;;;;;;;;8.05;79.18;99805.66;5048019;28;19920;-82
2022/12/08 05:24:12;;;;;;;;;;;;;;;7.84;80.99;99801.31;5030840;28;19923;-82
2022/12/08 05:26:38;;;;;;;;;;;;;;;8.01;79.83;99811.78;5049377;28;19923;-84
2022/12/08 05:29:03;;;;;;;;;;;;;;;7.88;80.92;99810.09;5031252;28;20368;-80
2022/12/08 05:31:28;;;;;;;;;;;;;;;7.93;80.69;99804.81;5047554;28;19916;-80
2022/12/08 05:33:53;;;;;;;;;;;;;;;8.04;79.72;99817.03;5049377;28;20024;-79
2022/12/08 05:36:19;;;;;;;;;;;;;;;7.99;79.75;99818.81;5049416;28;20014;-80
2022/12/08 05:38:44;;;;;;;;;;;;;;;7.70;81.25;99809.22;5049117;28;20421;-80
2022/12/08 05:41:13;;;;;;;;;;;;;;;7.27;83.25;99822.38;5048509;28;19931;-81
2022/12/08 05:43:38;;;;;;;;;;;;;;;7.50;83.16;99835.50;5049484;28;19912;-81
2022/12/08 05:46:03;;;;;;;;;;;;;;;7.75;82.88;99832.84;5048643;28;19928;-81
2022/12/08 05:48:28;;;;;;;;;;;;;;;7.89;82.26;99836.34;5048376;28;19920;-81
2022/12/08 05:50:54;;;;;;;;;;;;;;;7.93;81.53;99838.97;5048241;28;19917;-81
2022/12/08 05:53:19;;;;;;;;;;;;;;;7.76;82.31;99845.13;5048734;28;19994;-81
2022/12/08 05:55:45;;;;;;;;;;;;;;;7.77;81.64;99819.72;5049066;28;19926;-81
2022/12/08 05:58:16;;;;;;;;;;;;;;;7.98;81.80;99852.97;5047532;28;19921;-81
2022/12/08 06:00:42;;;;;;;;;;;;;;;7.98;81.28;99856.44;5048497;28;19952;-80
2022/12/08 06:03:07;;;;;;;;;;;;;;;8.11;81.36;99856.44;5048643;28;20377;-81
2022/12/08 06:05:33;;;;;;;;;;;;;;;8.10;81.43;99849.44;5048467;28;19921;-82
2022/12/08 06:07:58;;;;;;;;;;;;;;;8.27;80.94;99852.03;5030886;28;19920;-80
2022/12/08 06:10:24;;;;;;;;;;;;;;;8.26;80.29;99853.75;5048267;28;19963;-80
2022/12/08 06:12:49;;;;;;;;;;;;;;;8.24;80.37;99850.28;5048610;28;19912;-79
2022/12/08 06:15:14;;;;;;;;;;;;;;;8.30;80.77;99857.28;5047639;28;19917;-79
2022/12/08 06:17:42;;;;;;;;;;;;;;;8.39;80.66;99849.34;5047267;28;19966;-79
2022/12/08 06:20:08;;;;;;;;;;;;;;;8.41;80.38;99858.09;5044817;28;19916;-79
2022/12/08 06:22:34;;;;;;;;;;;;;;;8.35;80.15;99863.38;5047190;28;19940;-80
2022/12/08 06:24:59;;;;;;;;;;;;;;;8.50;80.32;99865.13;5045953;28;19960;-80
2022/12/08 06:27:24;;;;;;;;;;;;;;;8.57;80.44;99861.56;5029810;28;19916;-80
2022/12/08 06:29:50;;;;;;;;;;;;;;;8.59;80.08;99852.81;5029375;28;20291;-80
2022/12/08 06:32:15;;;;;;;;;;;;;;;8.57;80.33;99851.06;5047510;28;19917;-79
2022/12/08 06:34:40;;;;;;;;;;;;;;;8.70;80.25;99860.66;5047771;28;20011;-80
2022/12/08 06:37:05;;;;;;;;;;;;;;;8.71;79.93;99866.75;5046581;28;20365;-80
2022/12/08 06:39:31;;;;;;;;;;;;;;;8.68;79.88;99865.03;5047586;28;19943;-80
2022/12/08 06:44:40;;;;;;;;;;;;;;;8.78;79.64;99868.50;5047978;28;20069;-80
2022/12/08 06:47:05;;;;;;;;;;;;;;;8.75;79.83;99865.88;5043478;28;19917;-80
2022/12/08 06:49:31;;;;;;;;;;;;;;;8.80;79.40;99860.59;5045231;28;19913;-79
2022/12/08 06:51:57;;;;;;;;;;;;;;;8.53;80.05;99860.72;5047079;28;19916;-79
2022/12/08 06:54:22;;;;;;;;;;;;;;;8.51;80.29;99867.75;5037438;28;19924;-79
2022/12/08 06:56:47;;;;;;;;;;;;;;;8.58;80.23;99860.69;5027243;28;19999;-78
2022/12/08 06:59:13;;;;;;;;;;;;;;;8.72;79.84;99868.53;5025856;28;20072;-78
2022/12/08 07:01:38;;;;;;;;;;;;;;;8.83;79.85;99868.47;5033818;28;19917;-79
2022/12/08 07:04:03;;;;;;;;;;;;;;;8.86;79.13;99871.94;5047092;28;19920;-79
2022/12/08 07:06:29;;;;;;;;;;;;;;;8.79;79.73;99867.63;5045991;28;19917;-79
2022/12/08 07:08:55;;;;;;;;;;;;;;;8.63;79.51;99864.16;5044801;28;19924;-79
2022/12/08 07:11:20;;;;;;;;;;;;;;;8.80;79.58;99879.00;5028587;28;19917;-79
2022/12/08 07:13:48;;;;;;;;;;;;;;;8.72;79.75;99861.50;5047001;28;20345;-79
2022/12/08 07:16:13;;;;;;;;;;;;;;;8.88;79.39;99885.09;5025440;28;19925;-79
2022/12/08 07:18:40;;;;;;;;;;;;;;;8.82;80.06;99888.66;5027388;28;19920;-79
2022/12/08 07:21:07;;;;;;;;;;;;;;;9.00;79.03;99889.44;5027658;28;20386;-79
2022/12/08 07:23:33;;;;;;;;;;;;;;;9.06;79.18;99890.25;5033086;28;19971;-78
2022/12/08 07:25:59;;;;;;;;;;;;;;;9.07;78.70;99889.38;5047564;28;20345;-79
2022/12/08 07:28:25;;;;;;;;;;;;;;;9.12;78.26;99897.25;5035860;28;20375;-79
2022/12/08 07:30:51;;;;;;;;;;;;;;;9.14;78.30;99898.13;5031516;28;20011;-79
2022/12/08 07:33:25;;;;;;;;;;;;;;;9.10;78.32;99906.94;5046641;28;20737;-79
2022/12/08 07:36:00;;;;;;;;;;;;;;;8.89;78.56;99902.63;5040844;28;19917;-79
2022/12/08 07:38:28;;;;;;;;;;;;;;;8.77;79.13;99900.94;5018582;28;19948;-79
2022/12/08 07:40:54;;;;;;;;;;;;;;;8.95;78.76;99900.84;5036217;28;20802;-79
2022/12/08 07:43:23;;;;;;;;;;;;;;;8.86;78.71;99910.53;5028137;28;19999;-79
2022/12/08 07:46:14;;;;;;;;;;;;;;;8.72;79.59;99908.84;5046053;28;19920;-79
2022/12/08 07:49:00;;;;;;;;;;;;;;;8.66;80.68;99919.38;5029209;28;19921;-79
2022/12/08 07:51:34;;;;;;;;;;;;;;;8.88;79.71;99920.19;5031540;28;19927;-79
2022/12/08 07:54:14;;;;;;;;;;;;;;;8.84;80.46;99928.09;5026748;28;19951;-79
2022/12/08 07:56:58;;;;;;;;;;;;;;;8.76;80.84;99923.75;5046289;28;20010;-78
2022/12/08 07:59:34;;;;;;;;;;;;;;;8.89;80.75;99927.19;5047148;28;19913;-78
2022/12/08 08:02:27;;;;;;;;;;;;;;;8.61;80.47;99936.94;4997184;28;20432;-78
2022/12/08 08:04:56;;;;;;;;;;;;;;;8.75;82.18;99932.50;5046617;28;19952;-80
2022/12/08 08:07:21;;;;;;;;;;;;;;;8.89;80.63;99924.56;5028170;28;20015;-79
2022/12/08 08:10:25;;;;;;;;;;;;;;;9.16;79.85;99929.69;5045683;28;19913;-78
2022/12/08 08:12:50;;;;;;;;;;;;;;;9.02;78.84;99940.28;5042541;28;19947;-79
2022/12/08 08:15:18;;;;;;;;;;;;;;;8.88;80.24;99933.34;5009176;28;19941;-79
2022/12/08 08:18:11;;;;;;;;;;;;;;;9.01;79.76;99923.63;5023722;28;20379;-78
2022/12/08 08:20:41;;;;;;;;;;;;;;;8.95;81.00;99923.66;5009572;28;19916;-78
2022/12/08 08:23:35;;;;;;;;;;;;;;;9.06;79.25;99928.88;5043898;28;19955;-79
2022/12/08 08:26:26;;;;;;;;;;;;;;;8.96;79.71;99925.41;5045900;28;20647;-79
2022/12/08 08:29:10;;;;;;;;;;;;;;;9.10;80.31;99926.22;5038403;28;19994;-79
2022/12/08 08:31:50;;;;;;;;;;;;;;;9.03;80.06;99927.13;5028487;28;19916;-78
2022/12/08 08:34:21;;;;;;;;;;;;;;;8.86;81.00;99926.34;5045593;28;19927;-78
2022/12/08 08:37:09;;;;;;;;;;;;;;;8.97;80.10;99929.78;5042349;28;20011;-79
2022/12/08 08:39:59;;;;;;;;;;;;;;;8.95;80.38;99927.16;5045909;28;19916;-79
2022/12/08 08:42:43;;;;;;;;;;;;;;;8.90;80.81;99923.69;5026062;28;20271;-79
2022/12/08 08:45:23;;;;;;;;;;;;;;;9.05;81.18;99924.47;5046127;28;20787;-79
2022/12/08 08:48:04;;;;;;;;;;;;;;;9.18;80.05;99931.44;5029022;28;20322;-79
2022/12/08 08:50:31;;;;;;;;;;;;;;;9.24;80.27;99917.38;5045021;28;20024;-79
2022/12/08 08:53:12;;;;;;;;;;;;;;;9.19;80.98;99916.50;5021252;28;20231;-79
2022/12/08 08:56:00;;;;;;;;;;;;;;;9.62;79.05;99918.84;5047293;28;20424;-79
2022/12/08 08:58:29;;;;;;;;;;;;;;;9.55;78.44;99909.28;5032875;28;20399;-79
2022/12/08 09:00:55;;;;;;;;;;;;;;;9.70;77.51;99914.44;5014314;28;19956;-79
2022/12/08 09:03:20;;;;;;;;;;;;;;;9.47;78.02;99906.69;5048672;28;19927;-79
2022/12/08 09:05:46;;;;;;;;;;;;;;;9.57;77.59;99891.69;5031142;28;19925;-79
2022/12/08 09:08:12;;;;;;;;;;;;;;;9.59;78.43;99895.19;5029746;28;19916;-79
2022/12/08 09:10:37;;;;;;;;;;;;;;;9.78;77.93;99896.78;5028267;28;21394;-79
2022/12/08 09:13:02;;;;;;;;;;;;;;;9.86;77.21;99892.31;5028568;28;19917;-78
2022/12/08 09:15:28;;;;;;;;;;;;;;;9.91;76.99;99888.78;5027088;28;20402;-78
2022/12/08 09:17:56;;;;;;;;;;;;;;;10.08;76.29;99886.84;5042745;28;20068;-79
2022/12/08 09:20:25;;;;;;;;;;;;;;;10.01;76.78;99875.50;5044381;28;20428;-79
2022/12/08 09:22:51;;;;;;;;;;;;;;;9.84;76.94;99878.28;5011064;28;20018;-79
2022/12/08 09:25:27;;;;;;;;;;;;;;;10.04;76.43;99882.50;5041710;28;20410;-80
2022/12/08 09:28:14;;;;;;;;;;;;;;;10.18;75.55;99877.09;5027512;28;19921;-79
2022/12/08 09:30:43;;;;;;;;;;;;;;;10.38;74.80;99876.91;4991057;28;20296;-78
2022/12/08 09:33:12;;;;;;;;;;;;;;;10.09;75.10;99872.78;5019178;28;19960;-79
2022/12/08 09:35:38;;;;;;;;;;;;;;;10.02;75.20;99874.63;5046209;28;19956;-79
2022/12/08 09:38:04;;;;;;;;;;;;;;;10.08;75.10;99873.66;5046366;28;19923;-79
2022/12/08 09:40:53;;;;;;;;;;;;;;;10.18;75.04;99872.69;5045864;28;20390;-79
2022/12/08 09:43:22;;;;;;;;;;;;;;;9.97;75.35;99863.22;5034844;28;19920;-79
2022/12/08 09:45:47;;;;;;;;;;;;;;;9.90;75.79;99864.19;5024028;28;20318;-78
2022/12/08 09:48:23;;;;;;;;;;;;;;;9.95;75.54;99869.41;5009770;28;19966;-78
2022/12/08 09:50:53;;;;;;;;;;;;;;;9.93;75.88;99861.53;5028038;28;20044;-79
2022/12/08 09:53:22;;;;;;;;;;;;;;;9.97;75.97;99860.59;5032694;28;19920;-78
2022/12/08 09:56:08;;;;;;;;;;;;;;;10.09;74.81;99864.88;5027931;28;20008;-79
2022/12/08 09:58:43;;;;;;;;;;;;;;;10.09;74.02;99859.59;5028556;28;19932;-79
2022/12/08 10:01:13;;;;;;;;;;;;;;;10.09;74.29;99854.34;4993048;28;20000;-79
2022/12/08 10:03:39;;;;;;;;;;;;;;;9.97;75.34;99854.47;5034735;28;19917;-78
2022/12/08 10:06:05;;;;;;;;;;;;;;;9.97;75.57;99855.31;5042720;28;19925;-79
2022/12/08 10:08:39;;;;;;;;;;;;;;;9.88;75.70;99842.25;5047510;28;20295;-78
2022/12/08 10:11:10;;;;;;;;;;;;;;;9.85;74.86;99844.91;5047582;28;19921;-79
2022/12/08 10:13:49;;;;;;;;;;;;;;;9.91;74.87;99844.84;5029501;28;19966;-79
2022/12/08 10:16:15;;;;;;;;;;;;;;;10.28;72.88;99835.69;5046505;28;19921;-79
2022/12/08 10:18:41;;;;;;;;;;;;;;;10.34;72.34;99831.22;5046692;28;19963;-79
2022/12/08 10:21:09;;;;;;;;;;;;;;;10.62;71.69;99838.78;5043919;28;19991;-79
2022/12/08 10:23:37;;;;;;;;;;;;;;;10.66;71.17;99832.59;5027774;28;19916;-80
2022/12/08 10:26:02;;;;;;;;;;;;;;;10.65;71.61;99819.44;5029224;28;19917;-78
2022/12/08 10:28:27;;;;;;;;;;;;;;;10.53;71.65;99818.72;5046077;28;19924;-78
2022/12/08 10:30:53;;;;;;;;;;;;;;;10.54;70.55;99815.16;5027866;28;19916;-79
2022/12/08 10:33:22;;;;;;;;;;;;;;;10.26;71.19;99816.38;5027424;28;19917;-79
2022/12/08 10:36:01;;;;;;;;;;;;;;;10.41;71.62;99820.59;5029886;28;20491;-79
2022/12/08 10:38:51;;;;;;;;;;;;;;;10.30;71.50;99824.22;5043878;28;19921;-79
2022/12/08 10:41:18;;;;;;;;;;;;;;;10.57;71.55;99827.44;5029582;28;19927;-79
2022/12/08 10:43:58;;;;;;;;;;;;;;;10.03;72.35;99826.28;5044297;28;19913;-78
2022/12/08 10:46:28;;;;;;;;;;;;;;;9.75;73.21;99827.47;5044783;28;19916;-79
2022/12/08 10:49:03;;;;;;;;;;;;;;;9.43;76.04;99825.97;5044803;28;19916;-79
2022/12/08 10:51:48;;;;;;;;;;;;;;;9.52;74.88;99810.09;5033160;28;19970;-78
2022/12/08 10:54:27;;;;;;;;;;;;;;;9.94;74.63;99807.91;5044434;28;20715;-79
2022/12/08 10:57:30;;;;;;;;;;;;;;;10.09;74.33;99806.88;5023568;28;19913;-79
2022/12/08 10:59:57;;;;;;;;;;;;;;;10.32;72.92;99800.47;5025813;28;19917;-80
2022/12/08 11:02:34;;;;;;;;;;;;;;;10.18;73.61;99805.91;5025545;28;19928;-78
2022/12/08 11:05:21;;;;;;;;;;;;;;;10.51;72.30;99799.38;5032362;28;19931;-79
2022/12/08 11:07:48;;;;;;;;;;;;;;;10.63;72.05;99802.72;5027256;28;19916;-79
2022/12/08 11:10:17;;;;;;;;;;;;;;;10.74;71.31;99798.19;5027139;28;20004;-78
2022/12/08 11:12:44;;;;;;;;;;;;;;;10.83;70.47;99795.44;5043599;28;20723;-78
2022/12/08 11:15:14;;;;;;;;;;;;;;;10.87;69.96;99796.25;5044446;28;19921;-79
2022/12/08 11:17:40;;;;;;;;;;;;;;;10.55;71.92;99798.44;5043270;28;19924;-79
2022/12/08 11:20:08;;;;;;;;;;;;;;;10.65;71.57;99808.88;5045065;28;19916;-80
2022/12/08 11:22:36;;;;;;;;;;;;;;;10.87;70.97;99789.19;5024964;28;20544;-79
2022/12/08 11:25:14;;;;;;;;;;;;;;;10.91;70.86;99795.31;5045529;28;19912;-80
2022/12/08 11:27:50;;;;;;;;;;;;;;;10.89;70.31;99787.41;5045222;28;20003;-79
2022/12/08 11:30:18;;;;;;;;;;;;;;;10.85;69.50;99775.16;5027880;28;19916;-79
2022/12/08 11:32:44;;;;;;;;;;;;;;;10.89;69.12;99774.22;5044862;28;19920;-78
2022/12/08 11:35:17;;;;;;;;;;;;;;;10.77;69.46;99769.13;5045439;28;20325;-78
2022/12/08 11:37:43;;;;;;;;;;;;;;;10.74;69.08;99769.19;5043343;28;20400;-79
2022/12/08 11:40:27;;;;;;;;;;;;;;;10.36;70.26;99762.66;5025435;28;19917;-78
2022/12/08 11:43:11;;;;;;;;;;;;;;;10.56;70.96;99757.09;5009838;28;20011;-79
2022/12/08 11:45:38;;;;;;;;;;;;;;;10.53;72.73;99751.88;5045182;28;19921;-79
2022/12/08 11:48:12;;;;;;;;;;;;;;;10.70;72.43;99762.19;5044907;28;19912;-79
2022/12/08 11:50:41;;;;;;;;;;;;;;;10.42;72.42;99764.34;5044640;28;19923;-80
2022/12/08 11:53:14;;;;;;;;;;;;;;;10.29;72.44;99767.09;5045176;28;19921;-80
2022/12/08 11:55:53;;;;;;;;;;;;;;;10.40;72.46;99761.72;5026247;28;20003;-80
2022/12/08 11:58:27;;;;;;;;;;;;;;;10.56;72.28;99765.03;5044517;28;19916;-80
2022/12/08 12:01:00;;;;;;;;;;;;;;;10.65;72.23;99759.63;5045000;28;20018;-80
2022/12/08 12:03:30;;;;;;;;;;;;;;;10.59;71.41;99764.13;5044279;28;19924;-80
2022/12/08 12:05:58;;;;;;;;;;;;;;;10.60;72.20;99756.19;5034423;28;19917;-80
2022/12/08 12:08:46;;;;;;;;;;;;;;;10.28;71.68;99757.44;5025241;28;19917;-80
2022/12/08 12:12:12;;;;;;;;;;;;;;;10.52;72.04;99751.00;4995920;28;19999;-80
2022/12/08 12:14:17;;;;;;;;;;;;;;;10.48;72.25;99751.94;5025306;28;20542;-79
2022/12/08 12:16:45;;;;;;;;;;;;;;;10.31;73.24;99748.63;5026342;28;19920;-80
2022/12/08 12:19:15;;;;;;;;;;;;;;;10.14;73.95;99754.97;5045328;28;20394;-79
2022/12/08 12:21:47;;;;;;;;;;;;;;;10.39;73.01;99754.69;5045446;28;19971;-79
2022/12/08 12:24:18;;;;;;;;;;;;;;;10.31;73.03;99759.19;5045245;28;19917;-80
2022/12/08 12:26:54;;;;;;;;;;;;;;;10.24;73.29;99755.75;5044018;28;20437;-79
2022/12/08 12:29:23;;;;;;;;;;;;;;;10.19;73.10;99761.09;5045491;28;19932;-79
2022/12/08 12:31:51;;;;;;;;;;;;;;;10.12;73.64;99762.03;5030079;28;19913;-79
2022/12/08 12:34:17;;;;;;;;;;;;;;;10.03;74.55;99772.69;5029772;28;19913;-78
2022/12/08 12:36:47;;;;;;;;;;;;;;;10.09;74.18;99770.00;5040811;28;19917;-80
2022/12/08 12:39:13;;;;;;;;;;;;;;;9.48;75.65;99774.13;5041696;28;20422;-80
2022/12/08 12:41:47;;;;;;;;;;;;;;;9.34;77.34;99770.75;5027327;28;20432;-80
2022/12/08 12:44:12;;;;;;;;;;;;;;;9.71;77.26;99773.03;5034065;28;19928;-80
2022/12/08 12:46:49;;;;;;;;;;;;;;;9.80;76.31;99775.59;5045427;28;20310;-79
2022/12/08 12:49:33;;;;;;;;;;;;;;;9.93;75.46;99773.69;5048894;28;19908;-79
2022/12/08 12:51:58;;;;;;;;;;;;;;;10.02;75.56;99774.47;5048800;28;20018;-79
2022/12/08 12:54:30;;;;;;;;;;;;;;;9.91;75.20;99768.41;5048136;28;19948;-79
2022/12/08 12:56:55;;;;;;;;;;;;;;;10.11;74.98;99760.28;5047565;28;19962;-79
2022/12/08 12:59:43;;;;;;;;;;;;;;;9.93;73.94;99760.50;5039628;28;19917;-80
2022/12/08 13:02:19;;;;;;;;;;;;;;;10.03;74.91;99763.00;5047095;28;19920;-79
2022/12/08 13:04:52;;;;;;;;;;;;;;;10.01;74.45;99753.41;5048107;28;19923;-79
2022/12/08 13:07:22;;;;;;;;;;;;;;;10.14;73.98;99764.66;5047681;28;19966;-79
2022/12/08 13:09:54;;;;;;;;;;;;;;;10.37;73.02;99769.69;5041541;28;19916;-79
2022/12/08 13:12:22;;;;;;;;;;;;;;;10.54;73.44;99767.69;5053068;28;19920;-79
2022/12/08 13:14:49;;;;;;;;;;;;;;;10.17;74.32;99770.75;5030591;28;20302;-78
2022/12/08 13:17:37;;;;;;;;;;;;;;;10.34;73.91;99775.00;5028930;28;19927;-79